Time;durP1;ratioP1;P1;durP2;ratioP2;P2;SDS_P1;SDS_P2;PMS_P1;PMS_P2;Temp;Humidity;BMP_temperature;BMP_pressure;BME280_temperature;BME280_humidity;BME280_pressure;Samples;Min_cycle;Max_cycle;Signal;HPM_P1;HPM_P2
2023/12/10 00:00:13;;;;;;;154.45;97.53;;;;;;;12.53;nan;98798.19;5041359;28;20045;-68
2023/12/10 00:02:43;;;;;;;152.23;96.82;;;;;;;12.60;nan;98810.50;5064610;28;20512;-71
2023/12/10 00:05:12;;;;;;;155.70;97.55;;;;;;;12.50;nan;98809.25;5027747;28;20059;-69
2023/12/10 00:07:42;;;;;;;146.48;96.20;;;;;;;12.37;nan;98802.06;5038928;28;20072;-70
2023/12/10 00:10:11;;;;;;;159.73;98.70;;;;;;;12.42;nan;98812.09;5064452;28;20064;-71
2023/12/10 00:12:41;;;;;;;140.95;94.20;;;;;;;12.32;nan;98815.13;5063987;28;20064;-73
2023/12/10 00:15:10;;;;;;;143.48;95.07;;;;;;;12.29;nan;98810.22;5063175;28;20060;-72
2023/12/10 00:17:40;;;;;;;155.88;96.57;;;;;;;12.40;nan;98811.47;5059265;28;20227;-69
2023/12/10 00:20:10;;;;;;;166.68;97.68;;;;;;;12.25;nan;98811.66;5064011;28;20094;-70
2023/12/10 00:22:40;;;;;;;154.55;99.82;;;;;;;12.36;nan;98816.38;5062506;28;20139;-70
2023/12/10 00:25:09;;;;;;;160.82;105.55;;;;;;;12.34;nan;98815.75;5063278;28;20757;-70
2023/12/10 00:27:39;;;;;;;153.88;98.90;;;;;;;12.31;nan;98810.00;5061633;28;20045;-69
2023/12/10 00:30:09;;;;;;;163.40;101.20;;;;;;;12.45;nan;98825.78;5063898;28;20072;-69
2023/12/10 00:32:39;;;;;;;149.80;96.00;;;;;;;12.32;nan;98830.25;5050677;28;20414;-69
2023/12/10 00:35:09;;;;;;;165.00;101.22;;;;;;;12.27;nan;98822.88;5067792;28;20052;-71
2023/12/10 00:37:38;;;;;;;157.02;100.90;;;;;;;12.27;nan;98833.50;5051388;28;20123;-68
2023/12/10 00:40:09;;;;;;;152.63;100.28;;;;;;;12.24;nan;98838.41;5067912;28;20049;-71
2023/12/10 00:42:38;;;;;;;152.63;97.65;;;;;;;12.23;nan;98842.88;5052733;28;20037;-69
2023/12/10 00:45:08;;;;;;;157.32;98.68;;;;;;;12.14;nan;98839.59;5050272;28;20399;-69
2023/12/10 00:47:38;;;;;;;154.88;96.05;;;;;;;12.21;nan;98841.47;5068217;28;20518;-69
2023/12/10 00:50:08;;;;;;;163.05;101.35;;;;;;;12.14;nan;98839.59;5050639;28;20048;-69
2023/12/10 00:52:37;;;;;;;154.07;100.88;;;;;;;12.00;nan;98839.72;5067468;28;20047;-69
2023/12/10 00:55:07;;;;;;;160.18;102.40;;;;;;;11.97;nan;98838.31;5050109;28;20052;-69
2023/12/10 00:57:37;;;;;;;169.35;106.15;;;;;;;11.96;nan;98846.44;5067881;28;20049;-69
2023/12/10 01:00:07;;;;;;;163.40;105.93;;;;;;;12.05;nan;98845.28;5067794;28;20135;-69
2023/12/10 01:02:36;;;;;;;167.38;106.85;;;;;;;12.07;nan;98843.25;5059505;28;20114;-69
2023/12/10 01:05:06;;;;;;;170.82;107.10;;;;;;;12.07;nan;98845.91;5067556;28;20052;-69
2023/12/10 01:07:36;;;;;;;174.70;109.55;;;;;;;12.00;nan;98855.66;5068004;28;20040;-69
2023/12/10 01:10:07;;;;;;;164.50;106.13;;;;;;;11.96;nan;98851.75;5049128;28;20861;-70
2023/12/10 01:12:37;;;;;;;173.70;111.38;;;;;;;11.94;nan;98849.31;5065837;28;20040;-69
2023/12/10 01:15:10;;;;;;;170.95;106.25;;;;;;;12.05;nan;98851.41;5061710;28;20045;-69
2023/12/10 01:17:40;;;;;;;171.98;106.95;;;;;;;12.09;nan;98851.81;5066710;28;20476;-69
2023/12/10 01:20:10;;;;;;;175.73;113.05;;;;;;;12.05;nan;98853.22;5065131;28;20145;-69
2023/12/10 01:22:40;;;;;;;179.77;112.10;;;;;;;12.16;nan;98858.00;5064371;28;20044;-69
2023/12/10 01:25:13;;;;;;;178.45;110.88;;;;;;;12.14;nan;98860.84;5064223;28;20101;-69
2023/12/10 01:27:42;;;;;;;190.30;113.65;;;;;;;12.33;nan;98861.94;5065063;28;20040;-69
2023/12/10 01:30:13;;;;;;;185.25;113.75;;;;;;;12.28;nan;98872.31;5065044;28;20068;-68
2023/12/10 01:32:43;;;;;;;190.27;115.07;;;;;;;12.36;nan;98866.81;5027590;28;20044;-69
2023/12/10 01:35:12;;;;;;;191.63;117.25;;;;;;;12.55;nan;98862.59;5063693;28;20045;-69
2023/12/10 01:37:42;;;;;;;188.50;117.57;;;;;;;12.76;nan;98873.06;5047810;28;20127;-69
2023/12/10 01:40:12;;;;;;;210.80;120.65;;;;;;;12.71;nan;98872.00;5047608;28;20421;-68
2023/12/10 01:42:42;;;;;;;193.70;117.40;;;;;;;12.74;nan;98864.47;5063475;28;20075;-69
2023/12/10 01:45:12;;;;;;;199.38;117.55;;;;;;;12.78;nan;98875.53;5066383;28;20056;-69
2023/12/10 01:47:43;;;;;;;193.32;114.10;;;;;;;12.75;nan;98878.56;5060786;28;20052;-69
2023/12/10 01:50:13;;;;;;;184.88;116.15;;;;;;;12.60;nan;98876.91;5066583;28;20067;-70
2023/12/10 01:52:45;;;;;;;194.80;112.53;;;;;;;12.57;nan;98885.28;5016413;28;20068;-69
2023/12/10 01:55:16;;;;;;;179.52;111.03;;;;;;;12.46;nan;98883.22;5065804;28;20151;-69
2023/12/10 01:57:45;;;;;;;187.55;111.82;;;;;;;12.47;nan;98887.50;5060345;28;20135;-69
2023/12/10 02:00:15;;;;;;;182.18;110.88;;;;;;;12.46;nan;98885.03;5047442;28;20414;-69
2023/12/10 02:02:45;;;;;;;186.25;108.25;;;;;;;12.27;nan;98888.44;5066775;28;20048;-69
2023/12/10 02:05:14;;;;;;;179.65;107.88;;;;;;;12.46;nan;98888.53;5064801;28;20045;-69
2023/12/10 02:07:44;;;;;;;173.32;108.18;;;;;;;12.51;nan;98899.38;5066085;28;20059;-69
2023/12/10 02:10:13;;;;;;;184.88;109.32;;;;;;;12.69;nan;98892.66;5065457;28;20072;-69
2023/12/10 02:12:46;;;;;;;181.05;108.15;;;;;;;12.59;nan;98899.19;5061736;28;20059;-69
2023/12/10 02:15:29;;;;;;;177.40;109.70;;;;;;;12.55;nan;98905.94;5063341;28;20048;-69
2023/12/10 02:17:59;;;;;;;181.77;110.70;;;;;;;12.63;nan;98893.47;5065462;28;20277;-69
2023/12/10 02:20:29;;;;;;;188.77;112.95;;;;;;;12.74;nan;98909.66;5065492;28;20045;-69
2023/12/10 02:23:12;;;;;;;176.82;112.75;;;;;;;12.69;nan;98911.28;5060026;28;20052;-69
2023/12/10 02:25:42;;;;;;;177.45;107.95;;;;;;;12.72;nan;98906.38;5057273;28;20127;-69
2023/12/10 02:28:12;;;;;;;175.15;106.50;;;;;;;12.67;nan;98902.66;5064620;28;20044;-69
2023/12/10 02:30:41;;;;;;;171.52;108.75;;;;;;;12.46;nan;98907.13;5065977;28;20044;-69
2023/12/10 02:33:11;;;;;;;171.80;106.10;;;;;;;12.47;nan;98914.06;5065424;28;20061;-69
2023/12/10 02:35:40;;;;;;;176.10;108.80;;;;;;;12.44;nan;98913.63;5066422;28;20131;-69
2023/12/10 02:38:10;;;;;;;186.50;110.15;;;;;;;12.40;nan;98917.72;5065561;28;20041;-69
2023/12/10 02:40:40;;;;;;;178.38;109.70;;;;;;;12.58;nan;98921.47;5065965;28;20148;-69
2023/12/10 02:43:09;;;;;;;180.32;106.95;;;;;;;12.68;nan;98920.25;5065215;28;20088;-69
2023/12/10 02:45:39;;;;;;;182.52;112.15;;;;;;;12.76;nan;98925.38;5066087;28;20067;-69
2023/12/10 02:48:08;;;;;;;179.93;112.47;;;;;;;12.78;nan;98929.50;5068922;28;20087;-69
2023/12/10 02:50:38;;;;;;;195.20;115.95;;;;;;;12.85;nan;98927.66;5065393;28;20051;-69
2023/12/10 02:53:07;;;;;;;187.20;115.68;;;;;;;12.87;nan;98930.13;5065249;28;20136;-69
2023/12/10 02:55:37;;;;;;;196.80;118.93;;;;;;;13.16;nan;98931.63;5048679;28;20079;-69
2023/12/10 02:58:06;;;;;;;186.95;116.28;;;;;;;13.29;nan;98932.44;5065409;28;20555;-69
2023/12/10 03:00:35;;;;;;;198.55;120.32;;;;;;;13.16;nan;98943.06;5066275;28;20040;-69
2023/12/10 03:03:05;;;;;;;185.80;116.20;;;;;;;13.24;nan;98945.53;5062636;28;20037;-69
2023/12/10 03:05:34;;;;;;;184.68;114.50;;;;;;;13.28;nan;98949.44;5064865;28;20555;-69
2023/12/10 03:08:04;;;;;;;185.95;115.22;;;;;;;13.55;nan;98952.09;5065060;28;20048;-69
2023/12/10 03:10:33;;;;;;;174.52;115.57;;;;;;;13.50;nan;98958.84;5065603;28;20143;-69
2023/12/10 03:13:03;;;;;;;189.02;114.85;;;;;;;13.77;nan;98958.84;5065065;28;20074;-69
2023/12/10 03:15:32;;;;;;;183.80;114.72;;;;;;;13.99;nan;98973.56;5063807;28;20155;-69
2023/12/10 03:18:02;;;;;;;187.52;119.22;;;;;;;14.30;nan;98976.34;5065071;28;20048;-69
2023/12/10 03:20:31;;;;;;;184.70;119.07;;;;;;;14.17;nan;98980.88;5065621;28;20068;-69
2023/12/10 03:23:02;;;;;;;186.38;118.00;;;;;;;14.41;nan;98982.91;5064723;28;20159;-69
2023/12/10 03:25:32;;;;;;;185.05;116.40;;;;;;;14.83;nan;98982.31;5064809;28;20410;-69
2023/12/10 03:28:01;;;;;;;171.73;112.25;;;;;;;15.30;nan;98990.88;5065344;28;20460;-69
2023/12/10 03:30:31;;;;;;;173.02;111.60;;;;;;;15.54;nan;98986.63;5065002;28;20073;-69
2023/12/10 03:33:00;;;;;;;172.07;111.68;;;;;;;15.89;nan;98998.44;5065049;28;20055;-69
2023/12/10 03:35:30;;;;;;;169.90;112.25;;;;;;;16.11;nan;98999.69;5062631;28;20098;-69
2023/12/10 03:37:59;;;;;;;165.00;105.20;;;;;;;16.45;nan;99002.84;5063433;28;20162;-70
2023/12/10 03:40:28;;;;;;;164.93;108.40;;;;;;;16.56;nan;99002.06;5063376;28;20427;-67
2023/12/10 03:42:58;;;;;;;147.23;104.38;;;;;;;16.77;nan;99011.56;5063651;28;20059;-69
2023/12/10 03:45:28;;;;;;;156.52;102.35;;;;;;;17.01;nan;99018.63;5044162;28;20052;-69
2023/12/10 03:47:57;;;;;;;152.98;101.78;;;;;;;17.27;nan;99012.91;5057090;28;20475;-68
2023/12/10 03:50:27;;;;;;;158.60;103.78;;;;;;;17.40;nan;99014.59;5044773;28;20067;-67
2023/12/10 03:52:56;;;;;;;152.63;99.45;;;;;;;17.54;nan;99024.06;5047407;28;20681;-67
2023/12/10 03:55:26;;;;;;;144.18;103.20;;;;;;;17.77;nan;99028.69;5051589;28;20045;-68
2023/12/10 03:57:55;;;;;;;142.25;101.65;;;;;;;18.03;nan;99032.78;5050648;28;20044;-67
2023/12/10 04:00:24;;;;;;;159.25;105.63;;;;;;;18.02;nan;99040.00;5053943;28;25716;-68
2023/12/10 04:02:54;;;;;;;150.18;103.18;;;;;;;18.05;nan;99042.25;5049192;28;20383;-68
2023/12/10 04:05:24;;;;;;;153.93;106.03;;;;;;;18.50;nan;99044.34;5057317;28;20141;-67
2023/12/10 04:07:53;;;;;;;159.23;102.85;;;;;;;18.46;nan;99054.69;5044353;28;20796;-67
2023/12/10 04:10:23;;;;;;;142.48;102.25;;;;;;;18.72;nan;99051.53;5072270;28;20063;-68
2023/12/10 04:12:52;;;;;;;146.10;101.35;;;;;;;18.64;nan;99054.59;5072631;28;20056;-68
2023/12/10 04:15:21;;;;;;;132.45;95.18;;;;;;;19.05;nan;99058.13;5074047;28;20057;-67
2023/12/10 04:17:51;;;;;;;147.70;96.97;;;;;;;18.79;nan;99054.91;5081119;28;20162;-68
2023/12/10 04:20:21;;;;;;;120.75;86.55;;;;;;;18.88;nan;99058.06;5088459;28;20032;-67
2023/12/10 04:22:50;;;;;;;126.40;89.50;;;;;;;19.05;nan;99066.16;5082472;28;20079;-68
2023/12/10 04:25:21;;;;;;;121.18;87.15;;;;;;;19.19;nan;99060.28;5084998;28;20074;-68
2023/12/10 04:27:50;;;;;;;110.40;80.15;;;;;;;19.15;nan;99069.06;5077529;28;20074;-67
2023/12/10 04:30:20;;;;;;;105.95;77.78;;;;;;;19.65;nan;99072.72;5083914;28;20051;-68
2023/12/10 04:32:49;;;;;;;112.30;81.22;;;;;;;19.65;nan;99072.72;5082593;28;20124;-67
2023/12/10 04:35:19;;;;;;;110.82;77.28;;;;;;;19.55;nan;99080.63;5096652;28;20143;-67
2023/12/10 04:37:49;;;;;;;110.57;80.68;;;;;;;19.55;nan;99079.78;5092243;28;20113;-67
2023/12/10 04:40:18;;;;;;;113.07;79.40;;;;;;;19.21;nan;99076.97;5083746;28;20153;-68
2023/12/10 04:42:49;;;;;;;111.07;78.68;;;;;;;19.11;nan;99078.66;5083671;28;20136;-68
2023/12/10 04:45:18;;;;;;;116.50;78.55;;;;;;;18.70;nan;99074.31;5083929;28;20641;-68
2023/12/10 04:47:48;;;;;;;107.65;79.93;;;;;;;18.67;nan;99080.16;5083942;28;20121;-68
2023/12/10 04:50:18;;;;;;;110.72;80.97;;;;;;;18.89;nan;99085.72;5083113;28;20048;-68
2023/12/10 04:52:47;;;;;;;128.75;84.72;;;;;;;18.65;nan;99066.97;5084017;28;20052;-68
2023/12/10 04:55:17;;;;;;;117.22;82.68;;;;;;;18.77;nan;99069.59;5084354;28;20044;-69
2023/12/10 04:57:46;;;;;;;119.00;80.75;;;;;;;18.56;nan;99078.28;5083432;28;20059;-69
2023/12/10 05:00:16;;;;;;;117.18;79.53;;;;;;;18.62;nan;99071.97;5082570;28;20500;-69
2023/12/10 05:02:46;;;;;;;114.28;77.90;;;;;;;18.97;nan;99069.22;5084391;28;20355;-69
2023/12/10 05:05:16;;;;;;;114.30;78.82;;;;;;;19.01;nan;99073.06;5082404;28;20072;-69
2023/12/10 05:07:47;;;;;;;120.97;78.03;;;;;;;18.56;nan;99070.22;5082732;28;20531;-69
2023/12/10 05:10:16;;;;;;;113.88;77.18;;;;;;;18.69;nan;99069.97;5084069;28;20447;-69
2023/12/10 05:12:45;;;;;;;116.72;75.68;;;;;;;18.89;nan;99075.78;5083276;28;20036;-69
2023/12/10 05:15:15;;;;;;;113.63;74.93;;;;;;;19.00;nan;99068.75;5087524;28;20048;-69
2023/12/10 05:17:45;;;;;;;105.20;73.38;;;;;;;18.81;nan;99068.09;5083931;28;20043;-70
2023/12/10 05:20:14;;;;;;;103.55;72.10;;;;;;;19.07;nan;99067.59;5086906;28;20036;-69
2023/12/10 05:22:43;;;;;;;109.38;69.70;;;;;;;18.84;nan;99070.31;5087156;28;20048;-69
2023/12/10 05:25:13;;;;;;;99.95;69.88;;;;;;;18.78;nan;99061.34;5086820;28;20059;-69
2023/12/10 05:27:42;;;;;;;129.23;70.80;;;;;;;18.66;nan;99057.88;5087071;28;20101;-71
2023/12/10 05:30:12;;;;;;;107.18;70.72;;;;;;;18.66;nan;99041.78;5086231;28;20052;-70
2023/12/10 05:32:42;;;;;;;110.25;73.20;;;;;;;18.91;nan;99056.75;5086628;28;20044;-71
2023/12/10 05:35:12;;;;;;;111.13;72.50;;;;;;;19.20;nan;99055.75;5084933;28;20043;-71
2023/12/10 05:37:42;;;;;;;104.30;69.50;;;;;;;19.04;nan;99049.25;5085040;28;20127;-71
2023/12/10 05:40:12;;;;;;;111.65;70.93;;;;;;;18.95;nan;99049.84;5081062;28;20040;-70
2023/12/10 05:42:42;;;;;;;110.95;72.93;;;;;;;19.06;nan;99049.00;5086430;28;20047;-70
2023/12/10 05:45:11;;;;;;;110.60;71.88;;;;;;;19.18;nan;99053.28;5086187;28;20055;-70
2023/12/10 05:47:41;;;;;;;112.47;72.65;;;;;;;19.44;nan;99040.34;5085527;28;20055;-70
2023/12/10 05:50:10;;;;;;;99.55;69.43;;;;;;;19.38;nan;99057.41;5086312;28;20585;-69
2023/12/10 05:52:40;;;;;;;109.93;69.28;;;;;;;19.61;nan;99052.75;5086598;28;20072;-70
2023/12/10 05:55:10;;;;;;;101.00;68.05;;;;;;;19.69;nan;99049.66;5085447;28;20048;-69
2023/12/10 05:57:39;;;;;;;102.35;66.93;;;;;;;19.48;nan;99046.88;5085219;28;20044;-70
2023/12/10 06:00:09;;;;;;;99.90;68.82;;;;;;;19.90;nan;99041.97;5085640;28;20052;-70
2023/12/10 06:02:39;;;;;;;94.75;61.90;;;;;;;19.93;nan;99036.09;5086524;28;20404;-69
2023/12/10 06:05:08;;;;;;;99.15;63.10;;;;;;;20.07;nan;99030.16;5083439;28;20075;-70
2023/12/10 06:07:39;;;;;;;88.43;59.83;;;;;;;20.16;nan;99033.22;5085670;28;20052;-70
2023/12/10 06:10:09;;;;;;;94.72;58.80;;;;;;;20.45;nan;99026.69;5086278;28;20044;-69
2023/12/10 06:12:39;;;;;;;86.47;54.15;;;;;;;21.06;nan;99022.91;5080856;28;20077;-69
2023/12/10 06:15:09;;;;;;;85.25;53.80;;;;;;;20.90;nan;99017.56;5086764;28;20043;-70
2023/12/10 06:17:38;;;;;;;83.13;55.08;;;;;;;20.76;nan;99011.75;5087688;28;20048;-69
2023/12/10 06:20:08;;;;;;;90.78;58.20;;;;;;;20.81;nan;99008.28;5082745;28;20816;-69
2023/12/10 06:22:38;;;;;;;83.80;55.95;;;;;;;20.77;nan;98996.41;5088976;28;20157;-69
2023/12/10 06:25:08;;;;;;;88.15;57.28;;;;;;;20.38;nan;98985.69;5073696;28;20075;-69
2023/12/10 06:27:37;;;;;;;80.75;56.97;;;;;;;20.58;nan;98982.44;5086688;28;20044;-70
2023/12/10 06:30:10;;;;;;;82.97;57.28;;;;;;;20.69;nan;98980.69;5071582;28;20311;-66
2023/12/10 06:32:41;;;;;;;;;;;;;;;20.57;nan;98983.53;5082851;28;20056;-70
2023/12/10 06:35:11;;;;;;;87.95;56.25;;;;;;;20.89;nan;98984.44;5076641;28;19971;-68
2023/12/10 06:37:41;;;;;;;85.07;55.88;;;;;;;20.90;nan;98971.78;5078291;28;20067;-67
2023/12/10 06:40:11;;;;;;;77.97;54.38;;;;;;;21.03;nan;98974.09;5083185;28;20163;-69
2023/12/10 06:42:40;;;;;;;84.22;55.33;;;;;;;20.95;nan;98969.97;5070844;28;20394;-69
2023/12/10 06:45:12;;;;;;;85.35;56.40;;;;;;;21.11;nan;98959.38;5079656;28;20113;-69
2023/12/10 06:47:42;;;;;;;82.13;56.35;;;;;;;21.00;nan;98963.81;5083040;28;20048;-69
2023/12/10 06:50:12;;;;;;;85.88;54.53;;;;;;;21.26;nan;98959.53;5083077;28;20076;-70
2023/12/10 06:52:41;;;;;;;89.63;53.20;;;;;;;21.21;nan;98956.78;5080493;28;20039;-69
2023/12/10 06:55:11;;;;;;;73.95;49.45;;;;;;;21.37;nan;98959.41;5089023;28;20063;-69
2023/12/10 06:57:40;;;;;;;70.30;48.40;;;;;;;21.48;nan;98950.31;5087389;28;20048;-70
2023/12/10 07:00:10;;;;;;;73.30;52.28;;;;;;;20.93;nan;98957.84;5075454;28;20122;-73
2023/12/10 07:02:40;;;;;;;79.10;52.53;;;;;;;21.27;nan;98940.44;5079429;28;20267;-69
2023/12/10 07:05:10;;;;;;;72.07;49.25;;;;;;;21.45;nan;98940.06;5075118;28;20137;-69
2023/12/10 07:07:40;;;;;;;63.03;43.72;;;;;;;21.20;nan;98937.13;5080440;28;20199;-69
2023/12/10 07:10:09;;;;;;;58.60;41.58;;;;;;;21.52;nan;98937.94;5082418;28;20598;-70
2023/12/10 07:12:39;;;;;;;60.28;39.72;;;;;;;21.48;nan;98923.34;5087049;28;20486;-71
2023/12/10 07:15:09;;;;;;;59.80;42.88;;;;;;;21.66;nan;98924.84;5084270;28;20052;-72
2023/12/10 07:17:39;;;;;;;61.65;40.97;;;;;;;21.52;nan;98918.25;5056420;28;20378;-69
2023/12/10 07:20:09;;;;;;;55.78;39.97;;;;;;;21.44;nan;98918.75;5087464;27;20146;-71
2023/12/10 07:22:38;;;;;;;51.80;39.17;;;;;;;21.65;nan;98912.44;5081035;28;20052;-72
2023/12/10 07:25:08;;;;;;;59.15;40.08;;;;;;;21.67;nan;98912.19;5079404;28;20635;-70
2023/12/10 07:27:38;;;;;;;55.50;38.55;;;;;;;21.70;nan;98904.38;5083269;28;20075;-72
2023/12/10 07:30:08;;;;;;;55.47;38.08;;;;;;;21.70;nan;98901.69;5062140;28;20135;-70
2023/12/10 07:32:37;;;;;;;58.20;36.80;;;;;;;21.63;nan;98898.41;5081299;28;20133;-67
2023/12/10 07:35:07;;;;;;;62.22;37.83;;;;;;;21.80;nan;98892.84;5075999;28;20475;-71
2023/12/10 07:37:36;;;;;;;53.88;39.28;;;;;;;21.90;nan;98893.75;5075724;28;20059;-70
2023/12/10 07:40:07;;;;;;;56.65;38.60;;;;;;;21.88;nan;98887.78;5063668;28;20573;-69
2023/12/10 07:42:37;;;;;;;53.78;40.95;;;;;;;21.83;nan;98882.34;5079972;28;20050;-70
2023/12/10 07:45:07;;;;;;;65.70;41.53;;;;;;;21.83;nan;98879.66;5079863;28;20060;-70
2023/12/10 07:47:36;;;;;;;57.90;39.45;;;;;;;21.99;nan;98885.19;5080676;28;20051;-69
2023/12/10 07:50:06;;;;;;;61.50;44.35;;;;;;;21.96;nan;98878.41;5081486;28;20055;-70
2023/12/10 07:52:36;;;;;;;53.63;43.10;;;;;;;21.95;nan;98863.31;5077715;28;20052;-69
2023/12/10 07:55:06;;;;;;;58.53;42.67;;;;;;;21.97;nan;98858.47;5081178;28;20051;-70
2023/12/10 07:57:36;;;;;;;65.97;47.80;;;;;;;21.79;nan;98857.00;5083917;28;20460;-70
2023/12/10 08:00:10;;;;;;;69.15;50.25;;;;;;;21.87;nan;98850.28;5079833;28;20044;-70
2023/12/10 08:02:39;;;;;;;62.70;46.25;;;;;;;21.92;nan;98836.81;5073976;28;20044;-65
2023/12/10 08:05:09;;;;;;;68.85;47.33;;;;;;;22.02;nan;98846.88;5077228;28;20058;-68
2023/12/10 08:07:39;;;;;;;67.68;45.72;;;;;;;21.97;nan;98830.69;5078218;28;20055;-68
2023/12/10 08:10:09;;;;;;;56.55;42.63;;;;;;;21.97;nan;98827.97;5077689;28;20048;-70
2023/12/10 08:12:39;;;;;;;54.30;40.13;;;;;;;21.80;nan;98822.75;5088943;28;20061;-70
2023/12/10 08:15:10;;;;;;;56.67;40.22;;;;;;;21.76;nan;98813.56;5054421;28;20154;-70
2023/12/10 08:17:39;;;;;;;60.47;40.53;;;;;;;21.74;nan;98807.59;5079292;28;20044;-70
2023/12/10 08:20:10;;;;;;;58.45;39.65;;;;;;;21.50;nan;98801.84;5079441;28;20056;-73
2023/12/10 08:22:40;;;;;;;54.78;39.95;;;;;;;21.54;nan;98799.44;5072544;28;20082;-75
2023/12/10 08:25:10;;;;;;;51.05;38.55;;;;;;;21.63;nan;98792.47;5070333;28;20123;-73
2023/12/10 08:27:39;;;;;;;62.85;39.50;;;;;;;21.72;nan;98788.22;5071426;28;20503;-72
2023/12/10 08:30:09;;;;;;;55.72;38.95;;;;;;;21.70;nan;98790.34;5082634;28;20037;-72
2023/12/10 08:32:39;;;;;;;59.40;38.70;;;;;;;21.80;nan;98785.00;5079248;28;20052;-73
2023/12/10 08:35:12;;;;;;;48.53;37.10;;;;;;;21.91;nan;98792.03;5080646;28;20550;-70
2023/12/10 08:37:42;;;;;;;49.67;35.13;;;;;;;21.96;nan;98794.78;5082358;28;20353;-72
2023/12/10 08:40:12;;;;;;;53.38;35.42;;;;;;;21.77;nan;98785.53;5077509;28;20436;-72
2023/12/10 08:42:42;;;;;;;48.30;34.63;;;;;;;21.73;nan;98777.13;5081103;28;20067;-70
2023/12/10 08:45:12;;;;;;;45.63;34.70;;;;;;;21.72;nan;98777.41;5081351;28;20050;-71
2023/12/10 08:47:42;;;;;;;46.75;33.30;;;;;;;21.69;nan;98770.66;5080579;28;20044;-73
2023/12/10 08:50:13;;;;;;;46.70;33.00;;;;;;;21.77;nan;98772.88;5085690;28;20043;-74
2023/12/10 08:52:42;;;;;;;44.92;32.60;;;;;;;21.81;nan;98771.28;5084514;28;20414;-73
2023/12/10 08:55:11;;;;;;;39.08;29.73;;;;;;;21.74;nan;98769.88;5085321;28;20054;-73
2023/12/10 08:57:41;;;;;;;42.55;30.88;;;;;;;21.83;nan;98763.72;5086476;28;20681;-72
2023/12/10 09:00:11;;;;;;;39.85;30.25;;;;;;;21.90;nan;98761.59;5077183;28;20047;-72
2023/12/10 09:02:41;;;;;;;40.63;29.73;;;;;;;21.86;nan;98757.00;5080781;28;20058;-74
2023/12/10 09:05:11;;;;;;;39.33;29.70;;;;;;;21.87;nan;98755.91;5074416;28;20085;-72
2023/12/10 09:07:41;;;;;;;36.42;27.35;;;;;;;21.74;nan;98761.78;5085004;28;20051;-73
2023/12/10 09:10:10;;;;;;;43.67;25.98;;;;;;;21.78;nan;98746.69;5074002;28;20056;-72
2023/12/10 09:12:41;;;;;;;34.30;25.48;;;;;;;21.79;nan;98746.44;5077783;28;20051;-72
2023/12/10 09:15:10;;;;;;;33.58;25.98;;;;;;;21.81;nan;98744.31;5087897;28;20524;-72
2023/12/10 09:17:40;;;;;;;31.33;24.30;;;;;;;21.85;nan;98736.50;5090408;28;20065;-72
2023/12/10 09:20:09;;;;;;;34.30;24.83;;;;;;;21.81;nan;98738.91;5074536;28;20063;-72
2023/12/10 09:22:39;;;;;;;40.78;26.33;;;;;;;21.76;nan;98735.38;5082824;28;20121;-73
2023/12/10 09:25:09;;;;;;;38.40;26.63;;;;;;;21.79;nan;98724.88;5080637;28;20036;-71
2023/12/10 09:27:38;;;;;;;42.05;27.30;;;;;;;21.70;nan;98710.28;5075526;28;20056;-71
2023/12/10 09:30:09;;;;;;;44.80;29.48;;;;;;;21.77;nan;98718.13;5084765;28;20333;-72
2023/12/10 09:32:42;;;;;;;38.92;27.88;;;;;;;21.80;nan;98714.91;5105471;27;20056;-72
2023/12/10 09:35:15;;;;;;;39.47;25.20;;;;;;;21.79;nan;98711.38;5076772;28;20199;-73
2023/12/10 09:37:46;;;;;;;32.90;23.52;;;;;;;21.79;nan;98719.47;5075259;28;20044;-73
2023/12/10 09:40:16;;;;;;;34.70;23.13;;;;;;;21.79;nan;98708.69;5083086;28;20066;-72
2023/12/10 09:42:48;;;;;;;27.87;21.50;;;;;;;21.83;nan;98711.66;5081503;28;20113;-72
2023/12/10 09:45:18;;;;;;;35.42;23.10;;;;;;;21.82;nan;98710.84;5086733;28;20276;-74
2023/12/10 09:47:48;;;;;;;30.08;21.52;;;;;;;21.83;nan;98714.34;5113938;27;20059;-73
2023/12/10 09:50:21;;;;;;;37.10;22.00;;;;;;;21.66;nan;98709.19;5081283;28;20035;-72
2023/12/10 09:52:50;;;;;;;32.67;20.00;;;;;;;21.72;nan;98712.72;5081019;28;20048;-72
2023/12/10 09:55:20;;;;;;;27.90;20.25;;;;;;;21.71;nan;98711.09;5080389;28;20044;-72
2023/12/10 09:57:49;;;;;;;28.33;19.38;;;;;;;21.76;nan;98708.41;5083809;28;20059;-73
2023/12/10 10:00:19;;;;;;;28.65;19.15;;;;;;;21.74;nan;98705.16;5085275;28;20036;-73
2023/12/10 10:02:49;;;;;;;28.17;17.17;;;;;;;21.71;nan;98705.69;5076649;28;20658;-73
2023/12/10 10:05:19;;;;;;;30.38;17.42;;;;;;;21.69;nan;98702.44;5078080;28;20051;-74
2023/12/10 10:07:50;;;;;;;30.35;18.15;;;;;;;21.67;nan;98697.34;5079438;28;20047;-74
2023/12/10 10:10:22;;;;;;;28.92;18.52;;;;;;;21.67;nan;98700.03;5086211;28;20044;-73
2023/12/10 10:12:54;;;;;;;28.50;20.40;;;;;;;21.66;nan;98693.00;5089440;28;20055;-73
2023/12/10 10:15:29;;;;;;;40.13;22.23;;;;;;;21.62;nan;98705.41;5090078;28;20652;-73
2023/12/10 10:17:59;;;;;;;32.35;20.05;;;;;;;21.61;nan;98695.69;5090156;28;20143;-70
2023/12/10 10:20:29;;;;;;;35.17;20.42;;;;;;;21.55;nan;98707.53;5082815;28;20063;-70
2023/12/10 10:22:58;;;;;;;33.58;21.52;;;;;;;21.52;nan;98697.25;5078739;28;20044;-73
2023/12/10 10:25:28;;;;;;;29.60;20.67;;;;;;;21.50;nan;98700.25;5083049;28;20141;-73
2023/12/10 10:27:58;;;;;;;31.05;20.55;;;;;;;21.51;nan;98692.94;5082037;28;20740;-73
2023/12/10 10:30:28;;;;;;;30.92;20.90;;;;;;;21.36;nan;98695.59;5084153;28;20078;-73
2023/12/10 10:33:00;;;;;;;32.25;20.15;;;;;;;21.38;nan;98696.94;5083384;28;20058;-74
2023/12/10 10:35:31;;;;;;;34.13;20.83;;;;;;;21.32;nan;98698.00;5088126;28;20486;-75
2023/12/10 10:38:03;;;;;;;29.48;19.58;;;;;;;21.25;nan;98699.28;5089380;28;20057;-73
2023/12/10 10:40:32;;;;;;;32.75;19.98;;;;;;;21.27;nan;98703.34;5083890;28;20132;-74
2023/12/10 10:43:02;;;;;;;33.17;20.25;;;;;;;21.22;nan;98700.63;5081933;28;20127;-73
2023/12/10 10:45:33;;;;;;;33.53;20.10;;;;;;;21.29;nan;98695.00;5081258;28;20470;-75
2023/12/10 10:48:03;;;;;;;35.78;20.55;;;;;;;21.19;nan;98703.03;5081726;28;20044;-73
2023/12/10 10:50:35;;;;;;;34.30;21.13;;;;;;;21.22;nan;98697.13;5079669;28;20465;-74
2023/12/10 10:53:07;;;;;;;32.97;19.70;;;;;;;21.16;nan;98698.97;5101495;27;20101;-74
2023/12/10 10:55:37;;;;;;;32.10;22.38;;;;;;;21.04;nan;98692.94;5089675;28;20123;-74
2023/12/10 10:58:27;;;;;;;28.25;20.65;;;;;;;20.96;nan;98698.81;5078750;28;20147;-75
2023/12/10 11:00:59;;;;;;;32.50;20.33;;;;;;;20.90;nan;98697.97;5076986;28;20043;-74
2023/12/10 11:03:30;;;;;;;32.50;21.40;;;;;;;20.88;nan;98697.44;5084815;28;20047;-74
2023/12/10 11:06:07;;;;;;;35.55;21.35;;;;;;;20.83;nan;98694.69;5084680;28;20351;-74
2023/12/10 11:08:54;;;;;;;32.58;21.27;;;;;;;20.77;nan;98695.72;5092986;28;20171;-74
2023/12/10 11:11:26;;;;;;;30.55;20.75;;;;;;;20.75;nan;98695.19;5086142;28;20059;-74
2023/12/10 11:13:59;;;;;;;39.80;21.70;;;;;;;20.84;nan;98700.91;5087488;28;20058;-74
2023/12/10 11:16:35;;;;;;;29.15;20.10;;;;;;;20.86;nan;98694.19;5091783;28;20051;-73
2023/12/10 11:19:05;;;;;;;34.45;20.42;;;;;;;20.69;nan;98695.41;5094566;28;20152;-74
2023/12/10 11:21:35;;;;;;;35.35;21.52;;;;;;;20.67;nan;98694.84;5086504;28;20062;-73
2023/12/10 11:24:05;;;;;;;45.47;24.05;;;;;;;20.64;nan;98688.09;5085239;28;20039;-74
2023/12/10 11:26:35;;;;;;;30.30;22.40;;;;;;;20.56;nan;98684.00;5079342;28;20518;-74
2023/12/10 11:29:04;;;;;;;34.25;21.95;;;;;;;20.45;nan;98684.16;5083160;28;20137;-73
2023/12/10 11:31:37;;;;;;;37.47;23.95;;;;;;;20.33;nan;98683.53;5081753;28;20051;-75
2023/12/10 11:34:06;;;;;;;34.70;23.52;;;;;;;20.08;nan;98681.41;5089637;28;20755;-74
2023/12/10 11:36:36;;;;;;;33.38;23.05;;;;;;;20.03;nan;98681.34;5086787;28;20047;-74
2023/12/10 11:39:14;;;;;;;35.40;21.95;;;;;;;19.91;nan;98688.75;4827083;28;10000700;-74